createdAt,value
2019-02-20T00:00:58.107Z,90.49
2019-02-20T00:03:25.034Z,90.88
2019-02-20T00:05:52.009Z,90.50
2019-02-20T00:08:18.927Z,91.45
2019-02-20T00:10:45.892Z,91.00
2019-02-20T00:13:12.827Z,90.84
2019-02-20T00:15:39.769Z,90.71
2019-02-20T00:18:06.694Z,91.40
2019-02-20T00:20:33.640Z,91.12
2019-02-20T00:23:00.619Z,91.74
2019-02-20T00:25:27.562Z,92.48
2019-02-20T00:27:54.521Z,92.51
2019-02-20T00:30:21.463Z,92.68
2019-02-20T00:32:48.410Z,92.75
2019-02-20T00:35:15.331Z,92.79
2019-02-20T00:37:42.287Z,92.43
2019-02-20T00:40:09.317Z,92.96
2019-02-20T00:42:36.302Z,92.68
2019-02-20T00:45:41.218Z,93.05
2019-02-20T00:48:33.640Z,92.78
2019-02-20T00:51:09.609Z,93.40
2019-02-20T00:53:42.286Z,93.57
2019-02-20T00:56:09.248Z,94.00
2019-02-20T00:58:36.186Z,94.01
2019-02-20T01:01:03.160Z,93.81
2019-02-20T01:03:30.158Z,93.88
2019-02-20T01:05:58.177Z,94.48
2019-02-20T01:08:25.202Z,94.35
2019-02-20T01:10:52.132Z,94.59
2019-02-20T01:13:19.095Z,93.96
2019-02-20T01:15:46.038Z,94.34
2019-02-20T01:18:12.983Z,94.55
2019-02-20T01:20:39.940Z,94.14
2019-02-20T01:23:06.927Z,93.59
2019-02-20T01:25:33.844Z,94.22
2019-02-20T01:28:00.915Z,94.26
2019-02-20T01:30:27.846Z,95.45
2019-02-20T01:32:54.801Z,94.81
2019-02-20T01:35:21.746Z,95.14
2019-02-20T01:37:48.699Z,95.04
2019-02-20T01:40:15.609Z,94.96
2019-02-20T01:42:42.558Z,95.01
2019-02-20T01:45:09.489Z,95.32
2019-02-20T01:47:36.437Z,95.21
2019-02-20T01:50:03.882Z,95.35
2019-02-20T01:52:30.925Z,95.23
2019-02-20T01:54:57.826Z,94.72
2019-02-20T01:57:24.775Z,95.38
2019-02-20T01:59:51.677Z,95.22
2019-02-20T02:02:18.627Z,95.33
2019-02-20T02:04:45.554Z,95.19
2019-02-20T02:07:12.492Z,95.40
2019-02-20T02:09:39.398Z,95.11
2019-02-20T02:12:06.486Z,94.63
2019-02-20T02:14:33.422Z,95.30
2019-02-20T02:17:00.395Z,95.44
2019-02-20T02:19:27.429Z,95.47
2019-02-20T02:21:54.360Z,95.79
2019-02-20T02:24:21.307Z,95.58
2019-02-20T02:26:48.222Z,95.48
2019-02-20T02:29:15.166Z,95.36
2019-02-20T02:31:42.173Z,95.72
2019-02-20T02:34:09.127Z,95.99
2019-02-20T02:36:36.042Z,94.93
2019-02-20T02:39:04.467Z,95.69
2019-02-20T02:41:31.428Z,96.12
2019-02-20T02:43:58.404Z,96.25
2019-02-20T02:46:25.347Z,96.48
2019-02-20T02:48:52.290Z,96.84
2019-02-20T02:51:19.471Z,97.08
2019-02-20T02:53:46.458Z,96.64
2019-02-20T02:56:13.382Z,96.46
2019-02-20T02:58:40.329Z,97.04
2019-02-20T03:01:07.245Z,97.23
2019-02-20T03:03:34.219Z,97.12
2019-02-20T03:06:01.266Z,97.83
2019-02-20T03:08:28.254Z,98.57
2019-02-20T03:10:55.167Z,98.85
2019-02-20T03:13:22.116Z,98.32
2019-02-20T03:15:49.046Z,98.42
2019-02-20T03:18:16.096Z,98.62
2019-02-20T03:20:43.131Z,98.71
2019-02-20T03:23:10.119Z,98.39
2019-02-20T03:25:37.070Z,98.45
2019-02-20T03:28:04.005Z,98.43
2019-02-20T03:30:30.997Z,98.54
2019-02-20T03:32:57.963Z,98.37
2019-02-20T03:35:24.865Z,98.60
2019-02-20T03:37:51.790Z,98.36
2019-02-20T03:40:18.730Z,98.12
2019-02-20T03:42:45.671Z,97.95
2019-02-20T03:45:12.829Z,98.13
2019-02-20T03:47:39.780Z,98.30
2019-02-20T03:50:06.849Z,97.44
2019-02-20T03:52:33.792Z,97.12
2019-02-20T03:55:00.772Z,97.22
2019-02-20T03:57:27.976Z,97.58
2019-02-20T03:59:54.907Z,97.67
2019-02-20T04:02:21.863Z,98.05
2019-02-20T04:04:48.811Z,98.04
2019-02-20T04:07:15.718Z,97.54
2019-02-20T04:09:42.679Z,97.82
2019-02-20T04:12:09.616Z,97.47
2019-02-20T04:14:36.614Z,97.75
2019-02-20T04:17:03.529Z,97.71
2019-02-20T04:19:30.468Z,96.98
2019-02-20T04:21:57.392Z,96.92
2019-02-20T04:24:24.319Z,97.54
2019-02-20T04:26:51.216Z,97.25
2019-02-20T04:29:18.168Z,97.23
2019-02-20T04:31:45.126Z,97.26
2019-02-20T04:34:12.091Z,97.41
2019-02-20T04:36:39.018Z,97.11
2019-02-20T04:39:05.990Z,96.87
2019-02-20T04:41:32.927Z,97.54
2019-02-20T04:43:59.829Z,97.53
2019-02-20T04:46:26.766Z,97.74
2019-02-20T04:48:53.679Z,97.64
2019-02-20T04:51:20.633Z,97.46
2019-02-20T04:53:47.533Z,96.45
2019-02-20T04:56:14.461Z,96.95
2019-02-20T04:58:41.667Z,96.85
2019-02-20T05:01:08.798Z,97.01
2019-02-20T05:03:35.813Z,96.67
2019-02-20T05:06:02.757Z,96.43
2019-02-20T05:08:29.666Z,96.83
2019-02-20T05:10:56.643Z,96.57
2019-02-20T05:13:23.562Z,96.29
2019-02-20T05:15:50.505Z,96.26
2019-02-20T05:18:17.413Z,96.60
2019-02-20T05:20:44.359Z,96.91
2019-02-20T05:23:11.308Z,96.98
2019-02-20T05:25:38.249Z,96.77
2019-02-20T05:28:05.159Z,96.62
2019-02-20T05:30:32.201Z,96.39
2019-02-20T05:32:59.125Z,96.84
2019-02-20T05:35:26.029Z,96.72
2019-02-20T05:37:52.937Z,96.76
2019-02-20T05:40:19.876Z,96.71
2019-02-20T05:42:48.310Z,96.98
2019-02-20T05:45:15.451Z,96.98
2019-02-20T05:47:42.389Z,97.16
2019-02-20T05:50:09.379Z,96.40
2019-02-20T05:52:36.360Z,96.57
2019-02-20T05:55:03.528Z,96.93
2019-02-20T05:57:30.468Z,97.22
2019-02-20T05:59:57.379Z,97.36
2019-02-20T06:02:24.331Z,97.83
2019-02-20T06:04:51.241Z,97.99
2019-02-20T06:07:18.178Z,98.16
2019-02-20T06:09:45.112Z,97.56
2019-02-20T06:12:12.042Z,97.79
2019-02-20T06:14:38.962Z,97.60
2019-02-20T06:17:05.900Z,98.12
2019-02-20T06:19:32.803Z,98.41
2019-02-20T06:21:59.754Z,98.63
2019-02-20T06:24:26.655Z,99.06
2019-02-20T06:26:53.591Z,98.63
2019-02-20T06:29:20.494Z,98.62
2019-02-20T06:31:47.433Z,98.78
2019-02-20T06:34:14.332Z,98.80
2019-02-20T06:36:41.297Z,99.33
2019-02-20T06:39:08.207Z,99.71
2019-02-20T06:41:39.086Z,99.89
2019-02-20T06:44:03.967Z,100.00
2019-02-20T06:46:30.887Z,99.65
2019-02-20T06:48:57.790Z,99.92
2019-02-20T06:51:24.733Z,99.42
2019-02-20T06:53:51.622Z,99.37
2019-02-20T06:56:18.563Z,99.74
2019-02-20T06:58:45.471Z,99.47
2019-02-20T07:01:12.415Z,99.68
2019-02-20T07:03:39.383Z,100.00
2019-02-20T07:06:49.823Z,99.77
2019-02-20T07:10:06.745Z,99.82
2019-02-20T07:12:55.210Z,100.00
2019-02-20T07:15:48.116Z,99.90
2019-02-20T07:18:49.900Z,99.81
2019-02-20T07:21:45.978Z,99.83
2019-02-20T07:24:45.180Z,99.08
2019-02-20T07:28:15.517Z,99.10
2019-02-20T07:30:42.412Z,99.29
2019-02-20T07:33:09.352Z,98.67
2019-02-20T07:35:36.270Z,98.33
2019-02-20T07:38:03.234Z,97.76
2019-02-20T07:40:30.205Z,97.90
2019-02-20T07:42:57.924Z,96.77
2019-02-20T07:45:24.859Z,96.55
2019-02-20T07:47:51.796Z,96.70
2019-02-20T07:50:18.912Z,96.17
2019-02-20T07:52:45.954Z,96.11
2019-02-20T07:55:13.848Z,95.65
2019-02-20T07:57:40.878Z,95.73
2019-02-20T08:00:09.984Z,95.97
2019-02-20T08:02:36.966Z,95.43
2019-02-20T08:05:04.263Z,94.76
2019-02-20T08:07:31.214Z,94.68
2019-02-20T08:09:58.137Z,94.85
2019-02-20T08:12:25.142Z,94.80
2019-02-20T08:14:52.050Z,94.21
2019-02-20T08:17:19.131Z,94.61
2019-02-20T08:19:46.025Z,94.01
2019-02-20T08:22:12.977Z,93.19
2019-02-20T08:24:39.918Z,93.11
2019-02-20T08:27:06.846Z,93.30
2019-02-20T08:29:33.925Z,92.59
2019-02-20T08:32:00.876Z,90.89
2019-02-20T08:34:27.823Z,91.49
2019-02-20T08:36:54.755Z,90.70
2019-02-20T08:39:21.765Z,91.35
2019-02-20T08:41:48.659Z,91.41
2019-02-20T08:44:15.613Z,90.75
2019-02-20T08:46:42.527Z,89.83
2019-02-20T08:49:09.477Z,89.59
2019-02-20T08:51:36.419Z,89.92
2019-02-20T08:54:04.526Z,89.12
2019-02-20T08:56:31.681Z,88.54
2019-02-20T08:58:58.635Z,87.93
2019-02-20T09:01:25.539Z,88.88
2019-02-20T09:03:52.482Z,87.16
2019-02-20T09:06:19.393Z,86.39
2019-02-20T09:08:46.338Z,85.32
2019-02-20T09:11:13.260Z,86.03
2019-02-20T09:13:40.232Z,84.58
2019-02-20T09:16:07.187Z,84.47
2019-02-20T09:18:34.120Z,84.60
2019-02-20T09:21:01.045Z,83.97
2019-02-20T09:23:28.025Z,83.36
2019-02-20T09:25:55.100Z,82.72
2019-02-20T09:28:22.051Z,82.17
2019-02-20T09:30:48.982Z,81.30
2019-02-20T09:33:15.917Z,81.20
2019-02-20T09:35:42.864Z,81.85
2019-02-20T09:38:10.588Z,80.79
2019-02-20T09:40:37.606Z,81.15
2019-02-20T09:43:04.495Z,81.81
2019-02-20T09:45:31.438Z,80.35
2019-02-20T09:47:58.375Z,80.31
2019-02-20T09:50:25.298Z,80.21
2019-02-20T09:52:52.957Z,79.92
2019-02-20T09:55:20.043Z,79.42
2019-02-20T09:57:46.957Z,79.17
2019-02-20T10:00:14.233Z,79.37
2019-02-20T10:02:41.148Z,77.81
2019-02-20T10:05:08.430Z,77.75
2019-02-20T10:07:35.355Z,77.34
2019-02-20T10:10:02.367Z,77.22
2019-02-20T10:12:29.273Z,76.72
2019-02-20T10:14:56.257Z,76.22
2019-02-20T10:17:23.161Z,76.91
2019-02-20T10:19:50.115Z,76.25
2019-02-20T10:22:17.124Z,77.41
2019-02-20T10:24:44.083Z,76.28
2019-02-20T10:27:10.998Z,76.53
2019-02-20T10:29:37.939Z,76.14
2019-02-20T10:32:04.840Z,76.46
2019-02-20T10:34:31.739Z,75.88
2019-02-20T10:36:58.702Z,75.75
2019-02-20T10:39:25.703Z,75.48
2019-02-20T10:41:52.639Z,74.09
2019-02-20T10:44:19.558Z,74.14
2019-02-20T10:46:46.517Z,72.50
2019-02-20T10:49:13.452Z,72.65
2019-02-20T10:51:40.420Z,72.89
2019-02-20T10:54:07.344Z,73.25
2019-02-20T10:56:34.268Z,73.48
2019-02-20T10:59:01.182Z,73.59
2019-02-20T11:01:28.136Z,73.29
2019-02-20T11:03:55.042Z,71.41
2019-02-20T11:06:21.977Z,71.74
2019-02-20T11:08:50.454Z,72.87
2019-02-20T11:11:17.548Z,72.62
2019-02-20T11:13:44.504Z,71.78
2019-02-20T11:16:11.471Z,71.43
2019-02-20T11:18:38.392Z,71.75
2019-02-20T11:21:05.334Z,69.62
2019-02-20T11:23:32.474Z,69.75
2019-02-20T11:25:59.638Z,70.88
2019-02-20T11:28:27.285Z,70.35
2019-02-20T11:30:54.532Z,69.05
2019-02-20T11:33:21.461Z,70.10
2019-02-20T11:35:48.618Z,69.13
2019-02-20T11:38:15.506Z,69.33
2019-02-20T11:40:42.462Z,70.55
2019-02-20T11:43:09.390Z,69.71
2019-02-20T11:45:36.419Z,69.12
2019-02-20T11:48:03.344Z,69.97
2019-02-20T11:50:30.263Z,69.70
2019-02-20T11:52:57.430Z,69.86
2019-02-20T11:55:24.334Z,69.78
2019-02-20T11:57:51.300Z,68.90
2019-02-20T12:00:18.311Z,68.37
2019-02-20T12:02:45.272Z,68.73
2019-02-20T12:05:12.632Z,69.24
2019-02-20T12:07:40.025Z,68.39
2019-02-20T12:10:07.231Z,68.83
2019-02-20T12:12:34.967Z,68.89
2019-02-20T12:15:02.299Z,68.69
2019-02-20T12:17:29.249Z,69.66
2019-02-20T12:19:56.254Z,69.80
2019-02-20T12:22:23.255Z,70.19
2019-02-20T12:24:50.289Z,69.96
2019-02-20T12:27:17.302Z,69.74
2019-02-20T12:29:44.298Z,70.82
2019-02-20T12:32:11.334Z,70.79
2019-02-20T12:34:38.301Z,70.31
2019-02-20T12:37:05.272Z,70.30
2019-02-20T12:39:32.347Z,70.89
2019-02-20T12:41:59.303Z,70.68
2019-02-20T12:44:26.249Z,70.22
2019-02-20T12:46:53.288Z,69.87
2019-02-20T12:49:20.229Z,70.03
2019-02-20T12:51:47.321Z,70.65
2019-02-20T12:54:14.349Z,69.24
2019-02-20T12:56:43.888Z,69.26
2019-02-20T12:59:10.144Z,68.98
2019-02-20T13:01:37.069Z,68.62
2019-02-20T13:04:03.986Z,67.94
2019-02-20T13:06:31.133Z,67.29
2019-02-20T13:08:58.049Z,68.44
2019-02-20T13:11:24.932Z,67.50
2019-02-20T13:13:51.908Z,67.66
2019-02-20T13:16:18.810Z,67.75
2019-02-20T13:18:45.753Z,68.62
2019-02-20T13:21:12.679Z,68.58
2019-02-20T13:23:39.633Z,69.54
2019-02-20T13:26:06.559Z,68.21
2019-02-20T13:28:33.684Z,68.50
2019-02-20T13:31:00.590Z,68.40
2019-02-20T13:33:27.546Z,67.74
2019-02-20T13:35:54.481Z,69.13
2019-02-20T13:38:22.007Z,68.82
2019-02-20T13:40:48.926Z,69.41
2019-02-20T13:43:16.500Z,69.02
2019-02-20T13:45:44.329Z,68.79
2019-02-20T13:48:11.538Z,70.60
2019-02-20T13:50:38.451Z,69.09
2019-02-20T13:53:05.802Z,68.92
2019-02-20T13:55:34.748Z,69.63
2019-02-20T13:58:01.613Z,69.67
2019-02-20T14:00:28.606Z,69.79
2019-02-20T14:02:55.505Z,69.70
2019-02-20T14:05:22.752Z,69.67
2019-02-20T14:07:49.663Z,70.53
2019-02-20T14:10:16.650Z,70.49
2019-02-20T14:12:43.588Z,71.12
2019-02-20T14:15:10.696Z,70.13
2019-02-20T14:17:37.594Z,67.97
2019-02-20T14:20:05.318Z,67.92
2019-02-20T14:22:32.263Z,67.82
2019-02-20T14:24:59.433Z,67.83
2019-02-20T14:27:26.506Z,68.15
2019-02-20T14:29:53.458Z,66.92
2019-02-20T14:32:20.389Z,67.78
2019-02-20T14:34:47.966Z,67.08
2019-02-20T14:37:14.955Z,66.13
2019-02-20T14:39:41.973Z,66.80
2019-02-20T14:42:08.919Z,66.41
2019-02-20T14:44:35.878Z,66.32
2019-02-20T14:47:02.839Z,66.09
2019-02-20T14:49:29.986Z,66.54
2019-02-20T14:51:56.914Z,66.03
2019-02-20T14:54:23.848Z,65.75
2019-02-20T14:56:50.783Z,66.38
2019-02-20T14:59:18.223Z,66.43
2019-02-20T15:01:45.131Z,65.96
2019-02-20T15:04:12.323Z,65.74
2019-02-20T15:06:39.305Z,65.87
2019-02-20T15:09:06.471Z,66.77
2019-02-20T15:11:33.505Z,66.55
2019-02-20T15:14:00.441Z,67.47
2019-02-20T15:16:27.318Z,66.70
2019-02-20T15:18:54.267Z,68.13
2019-02-20T15:21:21.514Z,68.19
2019-02-20T15:23:48.459Z,68.17
2019-02-20T15:26:15.405Z,68.32
2019-02-20T15:28:42.456Z,69.05
2019-02-20T15:31:09.506Z,69.17
2019-02-20T15:33:36.453Z,69.10
2019-02-20T15:36:03.514Z,69.42
2019-02-20T15:38:30.579Z,69.23
2019-02-20T15:40:57.983Z,69.45
2019-02-20T15:43:24.982Z,69.35
2019-02-20T15:45:51.925Z,69.83
2019-02-20T15:48:23.317Z,70.94
2019-02-20T15:50:48.323Z,70.80
2019-02-20T15:53:15.502Z,70.56
2019-02-20T15:55:42.810Z,70.83
2019-02-20T15:58:09.740Z,70.94
2019-02-20T16:00:37.085Z,71.46
2019-02-20T16:03:04.475Z,71.93
2019-02-20T16:05:31.553Z,72.20
2019-02-20T16:07:58.494Z,71.40
2019-02-20T16:10:25.515Z,71.88
2019-02-20T16:12:52.394Z,71.34
2019-02-20T16:15:19.513Z,71.32
2019-02-20T16:17:46.439Z,72.03
2019-02-20T16:20:14.398Z,71.44
2019-02-20T16:22:41.343Z,71.63
2019-02-20T16:25:10.285Z,71.78
2019-02-20T16:27:46.733Z,71.59
2019-02-20T16:30:09.848Z,72.16
2019-02-20T16:32:36.785Z,71.64
2019-02-20T16:35:04.011Z,71.36
2019-02-20T16:37:31.396Z,72.77
2019-02-20T16:39:58.304Z,72.05
2019-02-20T16:42:25.290Z,72.23
2019-02-20T16:44:52.177Z,72.36
2019-02-20T16:47:19.134Z,73.07
2019-02-20T16:49:46.034Z,73.18
2019-02-20T16:52:13.097Z,73.69
2019-02-20T16:54:40.050Z,73.30
2019-02-20T16:57:07.207Z,73.25
2019-02-20T16:59:34.290Z,73.33
2019-02-20T17:02:01.319Z,74.16
2019-02-20T17:04:30.042Z,74.37
2019-02-20T17:06:57.071Z,74.53
2019-02-20T17:09:24.046Z,75.24
2019-02-20T17:11:51.734Z,75.82
2019-02-20T17:14:19.048Z,76.06
2019-02-20T17:16:46.491Z,75.76
2019-02-20T17:19:13.496Z,74.96
2019-02-20T17:21:40.417Z,75.44
2019-02-20T17:24:07.683Z,75.30
2019-02-20T17:26:35.046Z,76.97
2019-02-20T17:29:02.098Z,76.55
2019-02-20T17:31:29.175Z,76.65
2019-02-20T17:33:56.502Z,76.02
2019-02-20T17:36:23.456Z,76.66
2019-02-20T17:38:50.463Z,76.67
2019-02-20T17:41:17.450Z,76.91
2019-02-20T17:43:44.406Z,77.43
2019-02-20T17:46:11.345Z,76.81
2019-02-20T17:48:38.388Z,77.47
2019-02-20T17:51:05.246Z,77.62
2019-02-20T17:53:32.397Z,78.32
2019-02-20T17:55:59.436Z,78.20
2019-02-20T17:58:26.370Z,77.99
2019-02-20T18:00:53.387Z,79.42
2019-02-20T18:03:20.466Z,78.97
2019-02-20T18:05:47.480Z,79.02
2019-02-20T18:08:14.413Z,79.52
2019-02-20T18:10:41.339Z,79.60
2019-02-20T18:13:08.287Z,80.14
2019-02-20T18:15:35.273Z,80.82
2019-02-20T18:18:03.524Z,80.57
2019-02-20T18:20:30.421Z,79.87
2019-02-20T18:22:57.808Z,79.59
2019-02-20T18:25:24.765Z,78.73
2019-02-20T18:27:51.824Z,79.51
2019-02-20T18:30:18.743Z,79.15
2019-02-20T18:32:45.664Z,78.97
2019-02-20T18:35:12.651Z,79.06
2019-02-20T18:37:39.624Z,78.82
2019-02-20T18:40:07.419Z,78.67
2019-02-20T18:42:36.252Z,79.02
2019-02-20T18:45:04.093Z,78.41
2019-02-20T18:47:31.051Z,78.99
2019-02-20T18:49:58.008Z,79.21
2019-02-20T18:52:24.950Z,79.49
2019-02-20T18:54:51.870Z,79.01
2019-02-20T18:57:18.923Z,78.84
2019-02-20T18:59:45.834Z,79.88
2019-02-20T19:02:12.730Z,79.89
2019-02-20T19:04:40.215Z,79.96
2019-02-20T19:07:11.924Z,79.60
2019-02-20T19:09:39.930Z,80.76
2019-02-20T19:12:48.542Z,80.61
2019-02-20T19:15:42.695Z,81.50
2019-02-20T19:19:12.413Z,81.68
2019-02-20T19:22:14.001Z,82.20
2019-02-20T19:25:21.293Z,82.21
2019-02-20T19:28:26.173Z,82.48
2019-02-20T19:31:45.767Z,82.83
2019-02-20T19:34:28.740Z,81.62
2019-02-20T19:37:33.361Z,81.66
2019-02-20T19:40:37.028Z,81.50
2019-02-20T19:43:46.044Z,81.68
2019-02-20T19:47:13.039Z,81.96
2019-02-20T19:50:15.186Z,82.52
2019-02-20T19:53:03.563Z,81.99
2019-02-20T19:56:07.690Z,82.12
2019-02-20T19:59:15.545Z,82.47
2019-02-20T20:02:28.118Z,82.22
2019-02-20T20:05:02.440Z,82.39
2019-02-20T20:08:14.700Z,82.41
2019-02-20T20:11:07.845Z,82.01
2019-02-20T20:14:25.059Z,82.31
2019-02-20T20:17:25.266Z,81.75
2019-02-20T20:20:14.070Z,82.40
2019-02-20T20:23:06.158Z,82.50
2019-02-20T20:26:20.105Z,82.67
2019-02-20T20:29:45.577Z,82.41
2019-02-20T20:32:39.221Z,82.95
2019-02-20T20:35:42.378Z,82.63
2019-02-20T20:38:26.718Z,83.18
2019-02-20T20:41:43.197Z,83.34
2019-02-20T20:44:35.538Z,83.55
2019-02-20T20:47:34.132Z,83.76
2019-02-20T20:50:54.869Z,83.43
2019-02-20T20:54:08.818Z,83.15
2019-02-20T20:57:18.152Z,83.53
2019-02-20T20:59:54.761Z,83.79
2019-02-20T21:02:31.926Z,83.87
2019-02-20T21:05:16.539Z,84.05
2019-02-20T21:08:08.227Z,83.60
2019-02-20T21:11:11.908Z,83.60
2019-02-20T21:14:48.692Z,84.20
2019-02-20T21:17:34.353Z,84.19
2019-02-20T21:20:34.311Z,83.82
2019-02-20T21:23:24.348Z,84.34
2019-02-20T21:26:16.686Z,84.25
2019-02-20T21:29:08.062Z,84.60
2019-02-20T21:32:14.639Z,85.09
2019-02-20T21:35:14.245Z,84.64
2019-02-20T21:38:32.551Z,84.93
2019-02-20T21:41:12.589Z,85.28
2019-02-20T21:44:14.659Z,85.96
2019-02-20T21:47:08.139Z,85.79
2019-02-20T21:50:17.227Z,86.02
2019-02-20T21:53:07.484Z,86.32
2019-02-20T21:55:57.677Z,86.87
2019-02-20T21:59:02.946Z,86.88
2019-02-20T22:01:58.128Z,87.31
2019-02-20T22:04:58.509Z,87.12
2019-02-20T22:07:53.865Z,87.10
2019-02-20T22:10:55.198Z,87.92
2019-02-20T22:13:43.008Z,87.48
2019-02-20T22:17:06.894Z,88.36
2019-02-20T22:20:01.001Z,88.96
2019-02-20T22:23:09.427Z,89.36
2019-02-20T22:26:02.510Z,89.29
2019-02-20T22:28:59.821Z,88.94
2019-02-20T22:31:55.105Z,89.92
2019-02-20T22:34:55.721Z,89.67
2019-02-20T22:38:06.998Z,90.53
2019-02-20T22:41:25.086Z,90.33
2019-02-20T22:44:13.240Z,89.19
2019-02-20T22:46:52.884Z,89.81
2019-02-20T22:50:01.612Z,90.38
2019-02-20T22:52:59.042Z,90.65
2019-02-20T22:56:07.048Z,90.88
2019-02-20T22:59:04.959Z,91.43
2019-02-20T23:02:01.055Z,91.68
2019-02-20T23:04:45.263Z,91.03
2019-02-20T23:07:57.298Z,92.11
2019-02-20T23:10:54.944Z,92.58
2019-02-20T23:13:56.189Z,93.00
2019-02-20T23:16:23.128Z,92.75
2019-02-20T23:18:50.087Z,92.82
2019-02-20T23:21:17.033Z,94.08
2019-02-20T23:23:44.086Z,93.45
2019-02-20T23:26:11.043Z,92.82
2019-02-20T23:28:38.009Z,92.28
2019-02-20T23:31:04.941Z,93.38
2019-02-20T23:33:32.029Z,93.29
2019-02-20T23:35:58.967Z,93.24
2019-02-20T23:38:25.878Z,93.35
2019-02-20T23:40:52.799Z,92.59
2019-02-20T23:43:19.844Z,93.30
2019-02-20T23:45:46.755Z,93.18
2019-02-20T23:48:13.688Z,92.76
2019-02-20T23:50:40.590Z,93.03
2019-02-20T23:53:07.611Z,92.51
2019-02-20T23:55:34.560Z,92.29
2019-02-20T23:58:01.536Z,92.16
